Time;durP1;ratioP1;P1;durP2;ratioP2;P2;SDS_P1;SDS_P2;PMS_P1;PMS_P2;Temp;Humidity;BMP_temperature;BMP_pressure;BME280_temperature;BME280_humidity;BME280_pressure;Samples;Min_cycle;Max_cycle;Signal;HPM_P1;HPM_P2
2021/06/01 00:02:10;;;;;;;9.18;4.30;;;;;;;;;;5010845;28;20069;-63
2021/06/01 00:04:37;;;;;;;5.78;3.60;;;;;;;;;;5011656;28;20085;-63
2021/06/01 00:07:05;;;;;;;5.80;3.65;;;;;;;;;;5010391;28;20124;-63
2021/06/01 00:09:33;;;;;;;5.82;3.63;;;;;;;;;;5010943;28;20189;-63
2021/06/01 00:12:02;;;;;;;7.60;4.03;;;;;;;;;;5009579;28;20133;-63
2021/06/01 00:14:30;;;;;;;5.65;4.03;;;;;;;;;;4991796;28;20513;-63
2021/06/01 00:16:58;;;;;;;5.10;3.45;;;;;;;;;;4990950;28;20121;-63
2021/06/01 00:19:26;;;;;;;6.05;3.80;;;;;;;;;;4991824;28;20054;-63
2021/06/01 00:21:54;;;;;;;8.80;4.13;;;;;;;;;;4991461;28;20129;-63
2021/06/01 00:24:21;;;;;;;6.97;4.25;;;;;;;;;;4991420;28;20125;-63
2021/06/01 00:26:49;;;;;;;5.85;3.72;;;;;;;;;;4990669;28;20046;-63
2021/06/01 00:29:18;;;;;;;4.88;3.40;;;;;;;;;;4991520;28;20058;-63
2021/06/01 00:31:46;;;;;;;5.43;3.65;;;;;;;;;;4991449;28;20068;-63
2021/06/01 00:34:14;;;;;;;6.38;3.60;;;;;;;;;;4991510;28;20133;-63
2021/06/01 00:36:42;;;;;;;7.68;3.80;;;;;;;;;;4990381;28;20441;-63
2021/06/01 00:39:10;;;;;;;5.60;4.03;;;;;;;;;;4990962;28;20054;-63
2021/06/01 00:41:38;;;;;;;4.20;3.53;;;;;;;;;;5002665;28;20132;-64
2021/06/01 00:44:06;;;;;;;4.85;3.20;;;;;;;;;;5009896;28;20577;-63
2021/06/01 00:46:35;;;;;;;4.97;3.63;;;;;;;;;;5009219;28;20049;-64
2021/06/01 00:49:03;;;;;;;7.13;4.05;;;;;;;;;;5012284;28;20061;-64
2021/06/01 00:51:31;;;;;;;5.65;3.70;;;;;;;;;;5013640;28;20133;-63
2021/06/01 00:54:01;;;;;;;5.25;3.95;;;;;;;;;;5012268;28;20054;-64
2021/06/01 00:56:31;;;;;;;4.82;3.67;;;;;;;;;;5012019;28;20525;-64
2021/06/01 00:58:59;;;;;;;6.70;4.10;;;;;;;;;;5012486;28;20056;-64
2021/06/01 01:01:30;;;;;;;4.60;3.50;;;;;;;;;;5012192;28;20569;-64
2021/06/01 01:03:59;;;;;;;5.85;3.88;;;;;;;;;;4995930;28;20061;-64
2021/06/01 01:06:43;;;;;;;7.15;3.97;;;;;;;;;;5009929;28;20134;-64
2021/06/01 01:09:13;;;;;;;7.60;3.47;;;;;;;;;;5010136;28;20050;-63
2021/06/01 01:11:42;;;;;;;7.95;4.13;;;;;;;;;;5010181;28;20091;-63
2021/06/01 01:14:14;;;;;;;5.82;3.65;;;;;;;;;;5010006;28;20417;-63
2021/06/01 01:16:43;;;;;;;6.53;3.60;;;;;;;;;;5009609;28;20520;-64
2021/06/01 01:19:14;;;;;;;4.45;3.47;;;;;;;;;;5010791;28;20056;-64
2021/06/01 01:21:44;;;;;;;5.65;3.67;;;;;;;;;;5009558;28;20049;-64
2021/06/01 01:24:22;;;;;;;4.05;3.10;;;;;;;;;;5010242;28;20405;-64
2021/06/01 01:26:55;;;;;;;4.97;3.50;;;;;;;;;;5010185;28;20088;-64
2021/06/01 01:29:24;;;;;;;4.63;3.17;;;;;;;;;;5010161;28;20054;-64
2021/06/01 01:31:56;;;;;;;4.05;3.38;;;;;;;;;;5010312;28;20050;-64
2021/06/01 01:34:26;;;;;;;6.00;3.60;;;;;;;;;;5010408;28;20049;-64
2021/06/01 01:36:54;;;;;;;7.78;3.67;;;;;;;;;;5008848;28;20453;-64
2021/06/01 01:39:24;;;;;;;6.65;4.18;;;;;;;;;;4990591;28;20081;-64
2021/06/01 01:41:52;;;;;;;7.78;3.40;;;;;;;;;;4990965;28;20046;-64
2021/06/01 01:44:23;;;;;;;5.25;3.75;;;;;;;;;;4990196;28;20078;-63
2021/06/01 01:47:00;;;;;;;7.97;3.97;;;;;;;;;;4990531;28;20046;-64
2021/06/01 01:49:29;;;;;;;9.70;4.95;;;;;;;;;;4991000;28;20050;-64
2021/06/01 01:51:59;;;;;;;4.53;3.58;;;;;;;;;;5007134;28;20474;-64
2021/06/01 01:54:29;;;;;;;5.65;3.60;;;;;;;;;;5005693;28;20297;-63
2021/06/01 01:57:05;;;;;;;4.72;3.60;;;;;;;;;;5011322;28;20084;-64
2021/06/01 01:59:33;;;;;;;8.55;3.88;;;;;;;;;;5013828;28;20132;-64
2021/06/01 02:02:02;;;;;;;5.88;3.80;;;;;;;;;;5013761;28;20129;-63
2021/06/01 02:04:31;;;;;;;7.13;4.13;;;;;;;;;;5013660;28;20452;-63
2021/06/01 02:06:59;;;;;;;7.63;3.60;;;;;;;;;;5013359;28;20068;-63
2021/06/01 02:09:27;;;;;;;6.22;4.00;;;;;;;;;;5013048;28;20156;-63
2021/06/01 02:11:55;;;;;;;5.75;3.78;;;;;;;;;;5004237;28;20133;-63
2021/06/01 02:14:24;;;;;;;8.43;3.90;;;;;;;;;;4994042;28;20136;-63
2021/06/01 02:16:52;;;;;;;7.15;4.45;;;;;;;;;;4993433;28;20044;-63
2021/06/01 02:19:21;;;;;;;5.47;3.75;;;;;;;;;;4993564;28;20141;-62
2021/06/01 02:22:02;;;;;;;5.88;3.78;;;;;;;;;;4993962;28;20054;-63
2021/06/01 02:24:31;;;;;;;4.97;3.50;;;;;;;;;;4993944;28;20050;-64
2021/06/01 02:27:04;;;;;;;6.03;3.88;;;;;;;;;;4993383;28;20050;-64
2021/06/01 02:29:35;;;;;;;5.10;3.75;;;;;;;;;;5007215;28;20054;-64
2021/06/01 02:32:04;;;;;;;5.78;4.07;;;;;;;;;;5012892;28;20469;-64
2021/06/01 02:34:33;;;;;;;9.50;4.10;;;;;;;;;;5013183;28;20052;-63
2021/06/01 02:37:02;;;;;;;6.05;4.00;;;;;;;;;;5012551;28;20045;-63
2021/06/01 02:39:30;;;;;;;5.95;4.13;;;;;;;;;;5012782;28;20137;-63
2021/06/01 02:41:58;;;;;;;5.72;3.88;;;;;;;;;;4996532;28;20054;-63
2021/06/01 02:44:26;;;;;;;5.53;3.70;;;;;;;;;;4993096;28;20134;-63
2021/06/01 02:46:54;;;;;;;7.28;4.13;;;;;;;;;;4993110;28;20089;-63
2021/06/01 02:49:22;;;;;;;6.80;4.10;;;;;;;;;;4992700;28;20478;-63
2021/06/01 02:51:50;;;;;;;5.78;4.00;;;;;;;;;;5008952;28;20105;-63
2021/06/01 02:54:20;;;;;;;6.85;4.00;;;;;;;;;;5013494;28;20134;-63
2021/06/01 02:56:48;;;;;;;6.53;4.40;;;;;;;;;;5012514;28;20048;-63
2021/06/01 02:59:16;;;;;;;9.70;4.30;;;;;;;;;;5012792;28;20062;-63
2021/06/01 03:01:44;;;;;;;9.55;4.43;;;;;;;;;;5012337;28;20053;-63
2021/06/01 03:04:11;;;;;;;10.15;4.43;;;;;;;;;;4993226;28;20054;-63
2021/06/01 03:06:42;;;;;;;9.98;4.90;;;;;;;;;;4991745;28;20042;-63
2021/06/01 03:09:11;;;;;;;8.25;4.72;;;;;;;;;;4992354;28;20137;-63
2021/06/01 03:11:41;;;;;;;7.60;4.72;;;;;;;;;;4993168;28;20068;-63
2021/06/01 03:14:09;;;;;;;6.85;4.25;;;;;;;;;;4992570;28;20522;-62
2021/06/01 03:16:37;;;;;;;5.30;3.88;;;;;;;;;;4992074;28;20054;-63
2021/06/01 03:19:04;;;;;;;8.32;4.07;;;;;;;;;;4995032;28;20056;-64
2021/06/01 03:21:34;;;;;;;5.63;4.18;;;;;;;;;;5012794;28;20081;-63
2021/06/01 03:24:01;;;;;;;9.98;4.20;;;;;;;;;;5012323;28;20118;-63
2021/06/01 03:26:29;;;;;;;7.63;3.92;;;;;;;;;;5012666;28;20077;-63
2021/06/01 03:28:58;;;;;;;7.22;4.35;;;;;;;;;;5013246;28;20137;-63
2021/06/01 03:31:30;;;;;;;7.85;4.72;;;;;;;;;;5001469;28;20082;-63
2021/06/01 03:33:59;;;;;;;6.20;4.07;;;;;;;;;;4992517;28;20207;-63
2021/06/01 03:36:26;;;;;;;7.95;4.28;;;;;;;;;;4992319;28;20553;-63
2021/06/01 03:38:55;;;;;;;6.55;4.25;;;;;;;;;;4992616;28;20089;-63
2021/06/01 03:41:22;;;;;;;8.43;4.50;;;;;;;;;;4992779;28;20537;-63
2021/06/01 03:43:50;;;;;;;6.60;4.65;;;;;;;;;;4991848;28;20089;-63
2021/06/01 03:46:19;;;;;;;6.40;4.32;;;;;;;;;;4991975;28;20046;-64
2021/06/01 03:48:47;;;;;;;7.40;4.18;;;;;;;;;;4992090;28;20050;-63
2021/06/01 03:51:15;;;;;;;5.60;4.05;;;;;;;;;;5011370;28;20079;-63
2021/06/01 03:53:42;;;;;;;7.63;4.15;;;;;;;;;;5004286;28;20054;-63
2021/06/01 03:56:10;;;;;;;5.63;4.07;;;;;;;;;;4991729;28;20516;-63
2021/06/01 03:58:38;;;;;;;7.20;4.82;;;;;;;;;;5009252;28;20132;-63
2021/06/01 04:01:06;;;;;;;5.90;4.43;;;;;;;;;;5011464;28;20062;-63
2021/06/01 04:03:40;;;;;;;8.50;4.43;;;;;;;;;;5011169;28;20085;-63
2021/06/01 04:06:08;;;;;;;6.03;4.00;;;;;;;;;;5011635;28;20052;-63
2021/06/01 04:08:36;;;;;;;9.32;5.40;;;;;;;;;;5010887;28;20050;-63
2021/06/01 04:11:03;;;;;;;8.38;4.90;;;;;;;;;;5001019;28;20053;-63
2021/06/01 04:13:31;;;;;;;9.98;4.50;;;;;;;;;;4991947;28;20042;-63
2021/06/01 04:15:59;;;;;;;7.28;4.65;;;;;;;;;;4992032;28;20056;-63
2021/06/01 04:18:27;;;;;;;9.77;4.60;;;;;;;;;;4990193;28;20458;-63
2021/06/01 04:20:56;;;;;;;13.13;4.85;;;;;;;;;;4991265;28;20042;-63
2021/06/01 04:23:23;;;;;;;7.68;4.90;;;;;;;;;;4991445;28;20137;-63
2021/06/01 04:25:51;;;;;;;10.45;4.95;;;;;;;;;;4991625;28;20050;-63
2021/06/01 04:28:19;;;;;;;10.63;4.97;;;;;;;;;;4991430;28;20050;-63
2021/06/01 04:30:47;;;;;;;8.55;4.68;;;;;;;;;;4991318;28;20058;-63
2021/06/01 04:33:15;;;;;;;9.15;5.25;;;;;;;;;;4991195;28;20046;-63
2021/06/01 04:35:44;;;;;;;8.02;4.78;;;;;;;;;;4991744;28;20169;-63
2021/06/01 04:38:13;;;;;;;14.18;5.10;;;;;;;;;;4990465;28;20050;-63
2021/06/01 04:40:41;;;;;;;8.18;4.65;;;;;;;;;;4991319;28;20050;-63
2021/06/01 04:43:09;;;;;;;9.23;4.93;;;;;;;;;;4991565;28;20046;-63
2021/06/01 04:45:37;;;;;;;12.43;5.05;;;;;;;;;;5006042;28;20085;-63
2021/06/01 04:48:05;;;;;;;7.38;4.60;;;;;;;;;;5010480;28;20046;-63
2021/06/01 04:50:33;;;;;;;7.82;5.30;;;;;;;;;;5010587;28;20045;-63
2021/06/01 04:53:01;;;;;;;7.75;4.80;;;;;;;;;;5011177;28;20056;-63
2021/06/01 04:55:30;;;;;;;9.20;5.13;;;;;;;;;;5010094;28;20065;-62
2021/06/01 04:57:58;;;;;;;20.52;6.60;;;;;;;;;;5010409;28;20469;-63
2021/06/01 05:00:25;;;;;;;11.57;4.82;;;;;;;;;;5010392;28;20056;-63
2021/06/01 05:02:53;;;;;;;15.18;5.70;;;;;;;;;;5009587;28;20064;-62
2021/06/01 05:05:21;;;;;;;14.73;6.40;;;;;;;;;;5010176;28;20046;-63
2021/06/01 05:07:49;;;;;;;27.38;7.38;;;;;;;;;;5009706;28;20058;-63
2021/06/01 05:10:17;;;;;;;17.80;5.47;;;;;;;;;;5009609;28;20512;-62
2021/06/01 05:12:46;;;;;;;20.35;6.57;;;;;;;;;;5011094;28;20089;-63
2021/06/01 05:15:14;;;;;;;19.17;6.70;;;;;;;;;;5010738;28;20054;-62
2021/06/01 05:17:42;;;;;;;19.20;6.55;;;;;;;;;;5009931;28;20450;-63
2021/06/01 05:20:11;;;;;;;21.67;7.15;;;;;;;;;;4991193;28;20065;-63
2021/06/01 05:22:39;;;;;;;17.73;6.95;;;;;;;;;;4990771;28;20050;-62
2021/06/01 05:25:07;;;;;;;14.48;6.57;;;;;;;;;;4990738;28;20054;-62
2021/06/01 05:27:35;;;;;;;21.45;7.15;;;;;;;;;;4990025;28;20047;-63
2021/06/01 05:30:05;;;;;;;15.63;6.80;;;;;;;;;;4991022;28;20092;-63
2021/06/01 05:35:23;;;;;;;13.10;7.03;;;;;;;;;;4994947;28;20057;-63
2021/06/01 05:37:51;;;;;;;12.20;6.20;;;;;;;;;;4994608;28;20136;-62
2021/06/01 05:40:19;;;;;;;9.77;5.90;;;;;;;;;;4994545;28;20085;-63
2021/06/01 05:42:47;;;;;;;11.25;6.57;;;;;;;;;;4994925;28;20133;-63
2021/06/01 05:45:16;;;;;;;8.70;5.95;;;;;;;;;;4994100;28;20506;-63
2021/06/01 05:47:44;;;;;;;10.70;5.95;;;;;;;;;;5009173;28;20057;-63
2021/06/01 05:50:12;;;;;;;11.65;6.35;;;;;;;;;;5014574;28;20046;-63
2021/06/01 05:52:40;;;;;;;13.52;6.10;;;;;;;;;;5013267;28;20046;-63
2021/06/01 05:55:09;;;;;;;13.98;6.10;;;;;;;;;;5002762;28;20078;-63
2021/06/01 05:57:36;;;;;;;12.88;5.75;;;;;;;;;;5010280;28;20073;-63
2021/06/01 06:00:06;;;;;;;15.57;6.35;;;;;;;;;;5015389;28;20064;-63
2021/06/01 06:02:35;;;;;;;10.35;5.80;;;;;;;;;;5017404;28;20082;-63
2021/06/01 06:05:04;;;;;;;11.30;5.75;;;;;;;;;;5015903;28;20456;-64
2021/06/01 06:07:31;;;;;;;10.68;5.90;;;;;;;;;;5014537;28;20054;-63
2021/06/01 06:09:59;;;;;;;11.25;5.88;;;;;;;;;;5004136;28;20183;-63
2021/06/01 06:12:27;;;;;;;11.50;6.40;;;;;;;;;;4994089;28;20046;-63
2021/06/01 06:14:55;;;;;;;11.23;5.55;;;;;;;;;;4994563;28;20496;-63
2021/06/01 06:17:30;;;;;;;10.07;5.50;;;;;;;;;;4993931;28;20481;-63
2021/06/01 06:20:00;;;;;;;11.60;6.18;;;;;;;;;;4993523;28;20086;-63
2021/06/01 06:22:28;;;;;;;11.95;5.50;;;;;;;;;;4994085;28;20116;-63
2021/06/01 06:24:56;;;;;;;13.68;5.55;;;;;;;;;;4993490;28;20137;-63
2021/06/01 06:27:24;;;;;;;8.20;5.55;;;;;;;;;;5005948;28;20064;-63
2021/06/01 06:29:52;;;;;;;10.35;5.10;;;;;;;;;;5013380;28;20077;-63
2021/06/01 06:32:19;;;;;;;7.47;4.55;;;;;;;;;;5012974;28;20057;-63
2021/06/01 06:34:47;;;;;;;11.55;5.93;;;;;;;;;;5013859;28;20104;-63
2021/06/01 06:37:16;;;;;;;9.82;4.65;;;;;;;;;;5012930;28;20073;-64
2021/06/01 06:39:44;;;;;;;10.60;4.70;;;;;;;;;;5013557;28;20111;-64
2021/06/01 06:42:12;;;;;;;7.95;4.47;;;;;;;;;;5013262;28;20410;-64
2021/06/01 06:44:42;;;;;;;8.20;4.43;;;;;;;;;;4998763;28;20046;-64
2021/06/01 06:47:20;;;;;;;9.20;4.22;;;;;;;;;;4994429;28;20073;-64
2021/06/01 06:49:48;;;;;;;6.68;3.67;;;;;;;;;;4994129;28;20082;-63
2021/06/01 06:52:17;;;;;;;9.45;4.22;;;;;;;;;;5011589;28;20046;-63
2021/06/01 06:54:45;;;;;;;7.90;3.70;;;;;;;;;;5004833;28;20052;-63
2021/06/01 06:57:14;;;;;;;10.57;4.18;;;;;;;;;;4999712;28;20116;-64
2021/06/01 06:59:41;;;;;;;5.60;3.80;;;;;;;;;;5013725;28;20119;-64
2021/06/01 07:02:10;;;;;;;9.27;4.13;;;;;;;;;;5013162;28;20461;-64
2021/06/01 07:04:38;;;;;;;6.15;3.97;;;;;;;;;;5013755;28;20057;-63
2021/06/01 07:07:07;;;;;;;5.13;3.65;;;;;;;;;;5012483;28;20050;-63
2021/06/01 07:09:39;;;;;;;4.45;3.40;;;;;;;;;;5012764;28;20050;-64
2021/06/01 07:12:08;;;;;;;6.97;3.47;;;;;;;;;;5013182;28;20054;-63
2021/06/01 07:14:40;;;;;;;3.78;3.17;;;;;;;;;;5013020;28;20050;-63
2021/06/01 07:17:08;;;;;;;6.30;3.65;;;;;;;;;;5011210;28;20141;-63
2021/06/01 07:19:37;;;;;;;6.10;3.13;;;;;;;;;;5012203;28;20046;-63
2021/06/01 07:22:08;;;;;;;6.20;2.95;;;;;;;;;;5012436;28;20050;-63
2021/06/01 07:24:37;;;;;;;7.38;3.78;;;;;;;;;;5011823;28;20540;-63
2021/06/01 07:27:06;;;;;;;5.22;3.80;;;;;;;;;;5011734;28;20053;-63
2021/06/01 07:29:34;;;;;;;7.10;3.38;;;;;;;;;;5011966;28;20076;-63
2021/06/01 07:32:02;;;;;;;6.30;3.50;;;;;;;;;;5012303;28;20076;-63
2021/06/01 07:34:31;;;;;;;4.78;3.40;;;;;;;;;;5011087;28;20064;-63
2021/06/01 07:36:59;;;;;;;4.25;3.47;;;;;;;;;;5011993;28;20133;-64
2021/06/01 07:39:27;;;;;;;7.68;2.97;;;;;;;;;;5012837;28;20054;-63
2021/06/01 07:41:56;;;;;;;5.15;2.97;;;;;;;;;;5012476;28;20054;-63
2021/06/01 07:44:25;;;;;;;6.57;3.30;;;;;;;;;;5012237;28;20152;-63
2021/06/01 07:46:53;;;;;;;4.28;2.90;;;;;;;;;;5011442;28;20057;-64
2021/06/01 07:49:21;;;;;;;5.78;3.13;;;;;;;;;;5011215;28;20080;-64
2021/06/01 07:51:50;;;;;;;8.27;2.95;;;;;;;;;;5003175;28;20061;-64
2021/06/01 07:54:18;;;;;;;6.18;3.60;;;;;;;;;;4991798;28;20490;-64
2021/06/01 07:56:46;;;;;;;3.90;2.80;;;;;;;;;;4994163;28;20069;-64
2021/06/01 07:59:16;;;;;;;4.68;2.50;;;;;;;;;;5011295;28;20045;-64
2021/06/01 08:01:44;;;;;;;6.40;3.08;;;;;;;;;;5011445;28;20050;-64
2021/06/01 08:04:13;;;;;;;7.38;3.22;;;;;;;;;;5010395;28;20085;-64
2021/06/01 08:06:41;;;;;;;7.30;3.00;;;;;;;;;;5011074;28;20049;-63
2021/06/01 08:09:09;;;;;;;4.90;2.80;;;;;;;;;;5000046;28;20054;-63
2021/06/01 08:11:38;;;;;;;7.30;2.83;;;;;;;;;;4991882;28;20086;-63
2021/06/01 08:14:07;;;;;;;6.10;2.88;;;;;;;;;;4991716;28;20442;-64
2021/06/01 08:16:39;;;;;;;6.72;2.92;;;;;;;;;;4991669;28;20423;-63
2021/06/01 08:19:11;;;;;;;3.28;2.85;;;;;;;;;;4991546;28;20057;-63
2021/06/01 08:21:48;;;;;;;6.60;2.70;;;;;;;;;;5011019;28;20054;-63
2021/06/01 08:24:16;;;;;;;3.90;2.70;;;;;;;;;;5010921;28;20084;-63
2021/06/01 08:26:45;;;;;;;4.82;2.83;;;;;;;;;;4994659;28;20045;-63
2021/06/01 08:29:13;;;;;;;5.90;3.30;;;;;;;;;;4991057;28;20047;-63
2021/06/01 08:31:43;;;;;;;3.72;2.90;;;;;;;;;;4990925;28;20046;-62
2021/06/01 08:34:12;;;;;;;8.50;2.65;;;;;;;;;;4992371;28;20494;-64
2021/06/01 08:36:40;;;;;;;5.40;3.10;;;;;;;;;;4992900;28;20042;-63
2021/06/01 08:39:09;;;;;;;4.80;2.88;;;;;;;;;;4992247;28;20046;-64
2021/06/01 08:41:37;;;;;;;5.07;2.80;;;;;;;;;;4991923;28;20053;-64
2021/06/01 08:44:06;;;;;;;7.20;2.78;;;;;;;;;;4992176;28;20068;-64
2021/06/01 08:46:35;;;;;;;4.25;2.90;;;;;;;;;;4992737;28;20096;-63
2021/06/01 08:49:05;;;;;;;4.45;2.67;;;;;;;;;;5010285;28;20046;-63
2021/06/01 08:51:33;;;;;;;4.68;2.80;;;;;;;;;;5010696;28;20441;-63
2021/06/01 08:54:02;;;;;;;5.93;2.95;;;;;;;;;;5010729;28;20490;-63
2021/06/01 08:56:30;;;;;;;4.68;2.72;;;;;;;;;;5010259;28;20073;-63
2021/06/01 08:58:58;;;;;;;3.92;2.45;;;;;;;;;;5009446;28;20108;-63
2021/06/01 09:01:26;;;;;;;3.47;2.72;;;;;;;;;;4990258;28;20062;-63
2021/06/01 09:03:58;;;;;;;6.07;2.30;;;;;;;;;;4991025;28;20065;-63
2021/06/01 09:06:30;;;;;;;6.88;2.60;;;;;;;;;;4989815;28;20149;-63
2021/06/01 09:09:16;;;;;;;7.72;2.90;;;;;;;;;;4990683;28;20054;-64
2021/06/01 09:11:53;;;;;;;8.05;2.55;;;;;;;;;;4991041;28;20054;-64
2021/06/01 09:22:50;;;;;;;5.22;2.97;;;;;;;;;;4992082;28;20054;-63
2021/06/01 09:25:25;;;;;;;3.47;2.45;;;;;;;;;;4991042;28;20125;-63
2021/06/01 09:27:53;;;;;;;4.80;2.70;;;;;;;;;;4989714;28;20055;-63
2021/06/01 09:30:36;;;;;;;4.22;2.50;;;;;;;;;;4990940;28;20096;-64
2021/06/01 09:33:06;;;;;;;5.03;2.83;;;;;;;;;;4991997;28;20054;-63
2021/06/01 09:35:50;;;;;;;5.65;2.28;;;;;;;;;;4990702;28;20046;-64
2021/06/01 09:38:21;;;;;;;5.05;2.40;;;;;;;;;;4990431;28;20046;-63
2021/06/01 09:40:54;;;;;;;4.53;2.33;;;;;;;;;;4990655;28;20120;-64
2021/06/01 09:43:22;;;;;;;5.65;2.28;;;;;;;;;;4991244;28;20069;-63
2021/06/01 09:45:50;;;;;;;5.03;2.30;;;;;;;;;;4991126;28;20058;-63
2021/06/01 09:48:18;;;;;;;2.97;2.08;;;;;;;;;;4989948;28;20050;-64
2021/06/01 09:50:53;;;;;;;4.32;2.22;;;;;;;;;;4997196;28;20085;-63
2021/06/01 09:53:26;;;;;;;5.03;2.22;;;;;;;;;;5010122;28;20054;-64
2021/06/01 09:55:54;;;;;;;7.90;2.63;;;;;;;;;;4992173;28;20529;-63
2021/06/01 09:58:26;;;;;;;3.55;2.20;;;;;;;;;;4990014;28;20387;-63
2021/06/01 10:00:54;;;;;;;5.22;2.38;;;;;;;;;;4990850;28;20408;-64
2021/06/01 10:03:25;;;;;;;3.40;2.17;;;;;;;;;;4991044;28;20450;-64
2021/06/01 10:05:55;;;;;;;4.63;2.53;;;;;;;;;;4991308;28;20517;-64
2021/06/01 10:08:25;;;;;;;4.57;2.22;;;;;;;;;;4990817;28;20054;-63
2021/06/01 10:10:54;;;;;;;4.90;2.50;;;;;;;;;;4989858;28;20055;-63
2021/06/01 10:13:23;;;;;;;4.78;2.55;;;;;;;;;;4995731;28;20088;-62
2021/06/01 10:15:51;;;;;;;5.30;2.58;;;;;;;;;;5010469;28;20056;-64
2021/06/01 10:18:20;;;;;;;3.70;2.30;;;;;;;;;;5011966;28;20071;-64
2021/06/01 10:20:48;;;;;;;4.85;2.65;;;;;;;;;;5013131;28;20097;-64
2021/06/01 10:23:20;;;;;;;6.50;2.55;;;;;;;;;;5013520;28;20050;-64
2021/06/01 10:25:50;;;;;;;4.10;3.05;;;;;;;;;;4997429;28;20085;-63
2021/06/01 10:28:25;;;;;;;5.30;2.28;;;;;;;;;;5012330;28;20089;-64
2021/06/01 10:30:55;;;;;;;4.38;2.30;;;;;;;;;;5013309;28;20085;-64
2021/06/01 10:33:25;;;;;;;4.43;2.47;;;;;;;;;;5013303;28;20643;-64
2021/06/01 10:36:03;;;;;;;2.97;2.28;;;;;;;;;;5012797;28;20129;-64
2021/06/01 10:44:38;;;;;;;5.53;2.80;;;;;;;;;;5012852;28;20070;-64
2021/06/01 10:50:22;;;;;;;2.63;2.10;;;;;;;;;;5012577;28;20084;-63
2021/06/01 10:53:05;;;;;;;4.30;2.38;;;;;;;;;;4993547;28;20058;-63
2021/06/01 10:55:47;;;;;;;5.32;2.40;;;;;;;;;;5006947;28;20117;-63
2021/06/01 10:58:19;;;;;;;5.40;2.53;;;;;;;;;;5008530;28;20077;-64
2021/06/01 11:03:34;;;;;;;6.30;2.40;;;;;;;;;;4992852;28;20066;-64
2021/06/01 11:06:06;;;;;;;6.82;2.72;;;;;;;;;;4993442;28;20571;-65
2021/06/01 11:08:35;;;;;;;4.13;2.17;;;;;;;;;;4992901;28;20081;-63
2021/06/01 11:11:18;;;;;;;4.45;2.15;;;;;;;;;;4993797;28;20544;-62
2021/06/01 11:13:47;;;;;;;4.75;2.30;;;;;;;;;;4993347;28;20054;-62
2021/06/01 11:16:15;;;;;;;6.28;2.25;;;;;;;;;;4993337;28;20475;-63
2021/06/01 11:18:48;;;;;;;3.65;2.00;;;;;;;;;;4992582;28;20409;-63
2021/06/01 11:21:36;;;;;;;3.25;2.03;;;;;;;;;;4993348;28;20125;-63
2021/06/01 11:35:45;;;;;;;3.55;2.50;;;;;;;;;;4992337;28;20043;-63
2021/06/01 11:38:21;;;;;;;3.22;2.58;;;;;;;;;;4992067;28;20085;-62
2021/06/01 11:43:39;;;;;;;5.63;2.50;;;;;;;;;;4992052;28;20133;-62
2021/06/01 11:46:10;;;;;;;4.28;3.00;;;;;;;;;;4992470;28;20136;-63
2021/06/01 11:51:31;;;;;;;5.38;2.72;;;;;;;;;;5004419;28;20081;-63
2021/06/01 11:54:01;;;;;;;3.28;2.67;;;;;;;;;;5011931;28;20445;-63
2021/06/01 11:56:43;;;;;;;5.20;2.80;;;;;;;;;;5010629;28;20053;-64
2021/06/01 12:02:06;;;;;;;3.25;2.40;;;;;;;;;;5011903;28;20054;-63
2021/06/01 12:04:41;;;;;;;2.67;2.20;;;;;;;;;;5011546;28;20474;-62
2021/06/01 12:13:07;;;;;;;5.55;2.67;;;;;;;;;;4991404;28;20105;-65
2021/06/01 12:18:29;;;;;;;7.72;2.58;;;;;;;;;;4991337;28;20051;-64
2021/06/01 12:20:57;;;;;;;5.05;2.38;;;;;;;;;;5003760;28;20052;-64
2021/06/01 12:23:30;;;;;;;4.28;2.50;;;;;;;;;;5009587;28;20046;-64
2021/06/01 12:26:12;;;;;;;3.78;2.22;;;;;;;;;;5011111;28;20494;-64
2021/06/01 12:31:52;;;;;;;3.75;2.35;;;;;;;;;;4992269;28;20109;-64
2021/06/01 12:34:28;;;;;;;2.90;2.30;;;;;;;;;;4992151;28;20050;-64
2021/06/01 12:43:02;;;;;;;4.63;2.42;;;;;;;;;;4972784;28;20555;-65
2021/06/01 12:45:50;;;;;;;4.28;2.35;;;;;;;;;;4973076;28;20042;-65
2021/06/01 13:05:33;;;;;;;6.53;2.15;;;;;;;;;;4991408;28;20418;-65
2021/06/01 13:08:44;;;;;;;7.93;2.58;;;;;;;;;;4990810;28;20097;-65
2021/06/01 13:14:36;;;;;;;3.17;1.70;;;;;;;;;;5009600;28;20057;-65
2021/06/01 13:20:04;;;;;;;3.03;1.67;;;;;;;;;;5010806;28;20085;-64
2021/06/01 13:22:44;;;;;;;3.00;1.80;;;;;;;;;;5010369;28;20058;-64
2021/06/01 13:31:39;;;;;;;4.78;1.73;;;;;;;;;;5009851;28;20056;-64
2021/06/01 13:37:13;;;;;;;5.00;1.50;;;;;;;;;;5010402;28;20100;-64
2021/06/01 13:39:45;;;;;;;3.78;1.70;;;;;;;;;;5010640;28;20078;-64
2021/06/01 13:47:58;;;;;;;3.03;1.70;;;;;;;;;;5009730;28;20065;-65
2021/06/01 13:50:35;;;;;;;;;;;;;;;;;;5011265;28;20049;-64
2021/06/01 13:55:53;;;;;;;2.35;1.67;;;;;;;;;;4996792;28;20050;-64
2021/06/01 13:58:37;;;;;;;2.20;1.30;;;;;;;;;;5010339;28;20545;-64
2021/06/01 14:01:09;;;;;;;2.95;1.45;;;;;;;;;;5013701;28;20559;-65
2021/06/01 14:32:09;;;;;;;2.95;1.48;;;;;;;;;;5005264;28;20061;-64
2021/06/01 14:37:52;;;;;;;3.03;1.50;;;;;;;;;;5012764;28;20077;-64
2021/06/01 15:23:08;;;;;;;2.17;1.40;;;;;;;;;;4992755;28;20050;-63
2021/06/01 15:48:06;;;;;;;3.65;1.67;;;;;;;;;;5010103;28;20042;-63
2021/06/01 15:50:38;;;;;;;1.70;1.38;;;;;;;;;;5011800;28;20116;-63
2021/06/01 16:21:22;;;;;;;4.15;1.70;;;;;;;;;;4975721;28;20050;-63
2021/06/01 16:21:26;;;;;;;2.55;1.60;;;;;;;;;;4952907;28;20492;-63
2021/06/01 16:32:24;;;;;;;3.35;2.22;;;;;;;;;;4991598;28;20058;-63
2021/06/01 16:43:27;;;;;;;2.38;1.50;;;;;;;;;;4991427;28;20133;-63
2021/06/01 17:05:31;;;;;;;2.25;1.63;;;;;;;;;;4972095;28;20474;-63
2021/06/01 17:08:19;;;;;;;2.47;1.25;;;;;;;;;;4970893;28;20047;-64
2021/06/01 17:13:49;;;;;;;3.60;1.40;;;;;;;;;;4947995;28;20550;-64
2021/06/01 17:16:25;;;;;;;3.28;1.52;;;;;;;;;;4977039;28;20125;-64
2021/06/01 17:19:21;;;;;;;3.60;1.73;;;;;;;;;;4990864;28;20050;-64
2021/06/01 17:36:01;;;;;;;5.38;1.50;;;;;;;;;;4994565;28;20046;-64
2021/06/01 17:38:29;;;;;;;2.47;1.60;;;;;;;;;;4994340;28;20086;-64
2021/06/01 17:41:00;;;;;;;3.65;1.67;;;;;;;;;;4994373;28;20383;-64
2021/06/01 17:43:29;;;;;;;3.88;1.40;;;;;;;;;;4994413;28;20506;-64
2021/06/01 17:45:57;;;;;;;3.05;1.50;;;;;;;;;;4993311;28;20150;-64
2021/06/01 17:48:33;;;;;;;2.42;1.50;;;;;;;;;;4974095;28;20545;-64
2021/06/01 17:51:06;;;;;;;1.98;1.30;;;;;;;;;;4983423;28;20058;-64
2021/06/01 17:53:39;;;;;;;4.75;1.60;;;;;;;;;;4994693;28;20141;-64
2021/06/01 17:56:07;;;;;;;5.47;1.83;;;;;;;;;;4994352;28;20113;-64
2021/06/01 17:58:34;;;;;;;6.15;1.50;;;;;;;;;;4993651;28;20058;-64
2021/06/01 18:01:03;;;;;;;2.25;1.63;;;;;;;;;;4994320;28;20128;-64
2021/06/01 18:03:31;;;;;;;1.90;1.25;;;;;;;;;;4988210;28;20505;-64
2021/06/01 18:06:00;;;;;;;3.92;1.63;;;;;;;;;;4977320;28;20053;-63
2021/06/01 18:08:36;;;;;;;2.28;1.73;;;;;;;;;;4993402;28;20055;-63
2021/06/01 18:36:47;;;;;;;2.50;1.63;;;;;;;;;;4988998;28;20057;-64
2021/06/01 19:24:25;;;;;;;11.60;2.10;;;;;;;;;;4933073;29;20135;-64
2021/06/01 19:52:21;;;;;;;6.10;2.53;;;;;;;;;;5012636;28;20069;-64
2021/06/01 19:54:49;;;;;;;3.97;1.85;;;;;;;;;;5011451;28;20132;-64
2021/06/01 19:57:19;;;;;;;3.05;2.03;;;;;;;;;;5010713;28;20510;-63
2021/06/01 19:59:48;;;;;;;5.95;2.38;;;;;;;;;;5011575;28;20089;-64
2021/06/01 20:02:18;;;;;;;7.65;2.33;;;;;;;;;;5007429;28;20062;-63
2021/06/01 20:04:50;;;;;;;7.95;2.33;;;;;;;;;;4992019;28;20062;-63
2021/06/01 20:07:21;;;;;;;9.05;2.55;;;;;;;;;;4991497;28;20054;-64
2021/06/01 20:09:50;;;;;;;9.35;2.53;;;;;;;;;;4991504;28;20109;-64
2021/06/01 20:12:18;;;;;;;7.70;2.88;;;;;;;;;;4991185;28;20050;-64
2021/06/01 20:14:46;;;;;;;9.60;3.20;;;;;;;;;;4991806;28;20077;-64
2021/06/01 20:17:19;;;;;;;11.45;3.00;;;;;;;;;;4991216;28;20112;-64
2021/06/01 20:19:49;;;;;;;8.70;2.90;;;;;;;;;;4992981;28;20047;-65
2021/06/01 20:22:17;;;;;;;11.88;2.92;;;;;;;;;;4991299;28;20142;-65
2021/06/01 20:24:45;;;;;;;7.95;2.42;;;;;;;;;;4991091;28;20094;-65
2021/06/01 20:27:14;;;;;;;5.97;2.25;;;;;;;;;;4990924;28;20100;-65
2021/06/01 20:29:46;;;;;;;5.57;2.17;;;;;;;;;;4991390;28;20365;-65
2021/06/01 20:35:03;;;;;;;9.60;2.67;;;;;;;;;;5010845;28;20486;-65
2021/06/01 20:37:32;;;;;;;11.25;2.20;;;;;;;;;;4996021;28;20061;-63
2021/06/01 20:39:59;;;;;;;7.43;2.20;;;;;;;;;;4991358;28;20082;-63
2021/06/01 20:42:29;;;;;;;6.18;2.55;;;;;;;;;;5011099;28;20533;-64
2021/06/01 20:44:57;;;;;;;11.10;2.72;;;;;;;;;;5010508;28;20108;-62
2021/06/01 20:47:26;;;;;;;10.35;2.40;;;;;;;;;;5010438;28;20179;-63
2021/06/01 20:49:54;;;;;;;10.27;2.47;;;;;;;;;;5010535;28;20540;-64
2021/06/01 20:52:23;;;;;;;6.85;2.67;;;;;;;;;;5010797;28;20125;-64
2021/06/01 20:54:51;;;;;;;11.15;2.85;;;;;;;;;;4993254;28;20120;-64
2021/06/01 20:57:19;;;;;;;5.60;2.80;;;;;;;;;;4990278;28;20554;-64
2021/06/01 20:59:50;;;;;;;6.95;2.42;;;;;;;;;;4990739;28;20053;-63
2021/06/01 21:02:19;;;;;;;9.13;2.85;;;;;;;;;;4990139;28;20054;-63
2021/06/01 21:04:47;;;;;;;8.40;2.63;;;;;;;;;;4990571;28;20086;-66
2021/06/01 21:07:15;;;;;;;9.70;2.63;;;;;;;;;;4990511;28;20062;-64
2021/06/01 21:09:44;;;;;;;9.52;2.83;;;;;;;;;;4990140;28;20102;-64
2021/06/01 21:12:13;;;;;;;11.25;3.33;;;;;;;;;;4991105;28;20101;-64
2021/06/01 21:14:41;;;;;;;5.53;2.80;;;;;;;;;;4990705;28;20050;-64
2021/06/01 21:17:10;;;;;;;7.75;2.67;;;;;;;;;;4990554;28;20135;-63